sensor_id;sensor_type;location;lat;lon;timestamp;P1;durP1;ratioP1;P2;durP2;ratioP2
70744;SDS011;59284;31.390;34.904;2022-10-16T00:01:59;16.10;;;8.57;;
70744;SDS011;59284;31.390;34.904;2022-10-16T00:04:25;14.38;;;8.25;;
70744;SDS011;59284;31.390;34.904;2022-10-16T00:06:51;21.63;;;8.70;;
70744;SDS011;59284;31.390;34.904;2022-10-16T00:09:17;16.77;;;8.63;;
70744;SDS011;59284;31.390;34.904;2022-10-16T00:11:42;18.47;;;8.83;;
70744;SDS011;59284;31.390;34.904;2022-10-16T00:14:09;14.60;;;8.23;;
70744;SDS011;59284;31.390;34.904;2022-10-16T00:16:37;14.27;;;7.77;;
70744;SDS011;59284;31.390;34.904;2022-10-16T00:19:03;16.05;;;8.52;;
70744;SDS011;59284;31.390;34.904;2022-10-16T00:21:29;13.88;;;7.75;;
70744;SDS011;59284;31.390;34.904;2022-10-16T00:24:00;13.38;;;8.30;;
70744;SDS011;59284;31.390;34.904;2022-10-16T00:26:31;13.07;;;8.25;;
70744;SDS011;59284;31.390;34.904;2022-10-16T00:29:01;15.27;;;8.43;;
70744;SDS011;59284;31.390;34.904;2022-10-16T00:31:27;15.50;;;8.18;;
70744;SDS011;59284;31.390;34.904;2022-10-16T00:33:53;14.20;;;8.27;;
70744;SDS011;59284;31.390;34.904;2022-10-16T00:36:20;11.57;;;8.23;;
70744;SDS011;59284;31.390;34.904;2022-10-16T00:38:49;18.07;;;9.50;;
70744;SDS011;59284;31.390;34.904;2022-10-16T00:41:18;16.27;;;9.40;;
70744;SDS011;59284;31.390;34.904;2022-10-16T00:46:25;16.02;;;9.27;;
70744;SDS011;59284;31.390;34.904;2022-10-16T00:51:26;19.57;;;9.90;;
70744;SDS011;59284;31.390;34.904;2022-10-16T00:53:56;16.33;;;9.65;;
70744;SDS011;59284;31.390;34.904;2022-10-16T00:56:21;15.55;;;9.43;;
70744;SDS011;59284;31.390;34.904;2022-10-16T00:58:47;17.13;;;10.48;;
70744;SDS011;59284;31.390;34.904;2022-10-16T01:01:13;16.40;;;9.13;;
70744;SDS011;59284;31.390;34.904;2022-10-16T01:03:39;13.55;;;9.57;;
70744;SDS011;59284;31.390;34.904;2022-10-16T01:11:38;16.73;;;9.35;;
70744;SDS011;59284;31.390;34.904;2022-10-16T01:14:17;18.25;;;9.77;;
70744;SDS011;59284;31.390;34.904;2022-10-16T01:16:52;19.45;;;9.95;;
70744;SDS011;59284;31.390;34.904;2022-10-16T01:22:02;18.40;;;10.00;;
70744;SDS011;59284;31.390;34.904;2022-10-16T01:24:38;15.65;;;9.90;;
70744;SDS011;59284;31.390;34.904;2022-10-16T01:29:53;16.65;;;9.18;;
70744;SDS011;59284;31.390;34.904;2022-10-16T01:35:01;16.10;;;10.17;;
70744;SDS011;59284;31.390;34.904;2022-10-16T01:37:38;14.85;;;8.93;;
70744;SDS011;59284;31.390;34.904;2022-10-16T01:40:11;15.80;;;9.50;;
70744;SDS011;59284;31.390;34.904;2022-10-16T01:42:45;14.35;;;9.43;;
70744;SDS011;59284;31.390;34.904;2022-10-16T01:45:14;15.48;;;9.20;;
70744;SDS011;59284;31.390;34.904;2022-10-16T01:47:43;14.63;;;8.47;;
70744;SDS011;59284;31.390;34.904;2022-10-16T01:50:09;19.67;;;8.63;;
70744;SDS011;59284;31.390;34.904;2022-10-16T01:52:37;14.93;;;8.73;;
70744;SDS011;59284;31.390;34.904;2022-10-16T01:55:06;13.65;;;7.93;;
70744;SDS011;59284;31.390;34.904;2022-10-16T01:57:37;17.00;;;8.85;;
70744;SDS011;59284;31.390;34.904;2022-10-16T02:00:11;16.60;;;8.57;;
70744;SDS011;59284;31.390;34.904;2022-10-16T02:02:42;18.25;;;8.73;;
70744;SDS011;59284;31.390;34.904;2022-10-16T02:05:18;12.88;;;8.23;;
70744;SDS011;59284;31.390;34.904;2022-10-16T02:07:49;13.32;;;7.95;;
70744;SDS011;59284;31.390;34.904;2022-10-16T02:10:15;12.60;;;8.47;;
70744;SDS011;59284;31.390;34.904;2022-10-16T02:12:44;14.30;;;8.05;;
70744;SDS011;59284;31.390;34.904;2022-10-16T02:15:14;11.77;;;7.70;;
70744;SDS011;59284;31.390;34.904;2022-10-16T02:17:40;14.00;;;7.60;;
70744;SDS011;59284;31.390;34.904;2022-10-16T02:20:06;15.60;;;8.00;;
70744;SDS011;59284;31.390;34.904;2022-10-16T02:22:38;14.20;;;7.90;;
70744;SDS011;59284;31.390;34.904;2022-10-16T02:25:08;13.63;;;8.05;;
70744;SDS011;59284;31.390;34.904;2022-10-16T02:27:40;14.52;;;8.52;;
70744;SDS011;59284;31.390;34.904;2022-10-16T02:30:14;14.32;;;7.80;;
70744;SDS011;59284;31.390;34.904;2022-10-16T02:32:42;11.57;;;7.87;;
70744;SDS011;59284;31.390;34.904;2022-10-16T02:35:10;15.90;;;8.40;;
70744;SDS011;59284;31.390;34.904;2022-10-16T02:37:36;12.90;;;7.63;;
70744;SDS011;59284;31.390;34.904;2022-10-16T02:40:03;15.18;;;7.30;;
70744;SDS011;59284;31.390;34.904;2022-10-16T02:42:37;19.00;;;7.23;;
70744;SDS011;59284;31.390;34.904;2022-10-16T02:45:05;15.35;;;7.70;;
70744;SDS011;59284;31.390;34.904;2022-10-16T02:47:32;16.17;;;7.63;;
70744;SDS011;59284;31.390;34.904;2022-10-16T02:49:58;12.13;;;7.10;;
70744;SDS011;59284;31.390;34.904;2022-10-16T02:52:24;13.85;;;7.50;;
70744;SDS011;59284;31.390;34.904;2022-10-16T02:54:50;16.27;;;8.10;;
70744;SDS011;59284;31.390;34.904;2022-10-16T02:57:16;16.17;;;7.57;;
70744;SDS011;59284;31.390;34.904;2022-10-16T02:59:43;11.98;;;7.57;;
70744;SDS011;59284;31.390;34.904;2022-10-16T03:02:09;19.08;;;8.10;;
70744;SDS011;59284;31.390;34.904;2022-10-16T03:04:35;13.75;;;7.57;;
70744;SDS011;59284;31.390;34.904;2022-10-16T03:07:01;16.97;;;7.40;;
70744;SDS011;59284;31.390;34.904;2022-10-16T03:09:27;15.05;;;8.00;;
70744;SDS011;59284;31.390;34.904;2022-10-16T03:11:53;14.18;;;7.68;;
70744;SDS011;59284;31.390;34.904;2022-10-16T03:14:19;13.63;;;6.93;;
70744;SDS011;59284;31.390;34.904;2022-10-16T03:16:44;14.40;;;7.47;;
70744;SDS011;59284;31.390;34.904;2022-10-16T03:19:10;12.03;;;6.83;;
70744;SDS011;59284;31.390;34.904;2022-10-16T03:21:36;16.17;;;7.38;;
70744;SDS011;59284;31.390;34.904;2022-10-16T03:24:01;14.23;;;6.90;;
70744;SDS011;59284;31.390;34.904;2022-10-16T03:26:27;16.67;;;7.88;;
70744;SDS011;59284;31.390;34.904;2022-10-16T03:28:53;15.43;;;7.07;;
70744;SDS011;59284;31.390;34.904;2022-10-16T03:31:19;11.80;;;7.27;;
70744;SDS011;59284;31.390;34.904;2022-10-16T03:33:44;13.23;;;7.75;;
70744;SDS011;59284;31.390;34.904;2022-10-16T03:36:10;16.97;;;7.40;;
70744;SDS011;59284;31.390;34.904;2022-10-16T03:38:36;12.75;;;7.43;;
70744;SDS011;59284;31.390;34.904;2022-10-16T03:41:01;12.87;;;7.87;;
70744;SDS011;59284;31.390;34.904;2022-10-16T03:43:27;15.32;;;8.07;;
70744;SDS011;59284;31.390;34.904;2022-10-16T03:45:53;19.13;;;8.53;;
70744;SDS011;59284;31.390;34.904;2022-10-16T03:48:19;12.00;;;7.75;;
70744;SDS011;59284;31.390;34.904;2022-10-16T03:50:44;11.07;;;7.83;;
70744;SDS011;59284;31.390;34.904;2022-10-16T03:53:13;15.35;;;7.47;;
70744;SDS011;59284;31.390;34.904;2022-10-16T03:55:41;13.80;;;7.55;;
70744;SDS011;59284;31.390;34.904;2022-10-16T03:58:07;15.15;;;7.65;;
70744;SDS011;59284;31.390;34.904;2022-10-16T04:00:33;11.05;;;7.78;;
70744;SDS011;59284;31.390;34.904;2022-10-16T04:03:03;12.37;;;7.23;;
70744;SDS011;59284;31.390;34.904;2022-10-16T04:05:31;11.68;;;7.60;;
70744;SDS011;59284;31.390;34.904;2022-10-16T04:08:00;13.65;;;7.72;;
70744;SDS011;59284;31.390;34.904;2022-10-16T04:10:28;11.45;;;7.25;;
70744;SDS011;59284;31.390;34.904;2022-10-16T04:12:54;12.73;;;7.45;;
70744;SDS011;59284;31.390;34.904;2022-10-16T04:15:23;17.17;;;7.50;;
70744;SDS011;59284;31.390;34.904;2022-10-16T04:17:49;15.82;;;7.53;;
70744;SDS011;59284;31.390;34.904;2022-10-16T04:20:15;15.27;;;8.05;;
70744;SDS011;59284;31.390;34.904;2022-10-16T04:22:41;11.25;;;6.97;;
70744;SDS011;59284;31.390;34.904;2022-10-16T04:25:07;13.93;;;6.47;;
70744;SDS011;59284;31.390;34.904;2022-10-16T04:27:33;13.20;;;7.30;;
70744;SDS011;59284;31.390;34.904;2022-10-16T04:29:59;10.50;;;6.73;;
70744;SDS011;59284;31.390;34.904;2022-10-16T04:32:25;18.38;;;7.00;;
70744;SDS011;59284;31.390;34.904;2022-10-16T04:34:51;10.63;;;5.97;;
70744;SDS011;59284;31.390;34.904;2022-10-16T04:37:17;15.48;;;7.13;;
70744;SDS011;59284;31.390;34.904;2022-10-16T04:39:43;12.30;;;6.77;;
70744;SDS011;59284;31.390;34.904;2022-10-16T04:42:10;12.55;;;7.40;;
70744;SDS011;59284;31.390;34.904;2022-10-16T04:44:36;11.95;;;6.38;;
70744;SDS011;59284;31.390;34.904;2022-10-16T04:47:02;15.57;;;6.20;;
70744;SDS011;59284;31.390;34.904;2022-10-16T04:49:27;13.93;;;6.65;;
70744;SDS011;59284;31.390;34.904;2022-10-16T04:51:53;10.50;;;5.97;;
70744;SDS011;59284;31.390;34.904;2022-10-16T04:54:19;11.32;;;6.53;;
70744;SDS011;59284;31.390;34.904;2022-10-16T04:56:44;12.07;;;6.00;;
70744;SDS011;59284;31.390;34.904;2022-10-16T04:59:15;14.75;;;6.80;;
70744;SDS011;59284;31.390;34.904;2022-10-16T05:01:41;14.48;;;6.15;;
70744;SDS011;59284;31.390;34.904;2022-10-16T05:04:06;11.57;;;6.40;;
70744;SDS011;59284;31.390;34.904;2022-10-16T05:06:32;13.15;;;6.35;;
70744;SDS011;59284;31.390;34.904;2022-10-16T05:08:58;19.00;;;6.17;;
70744;SDS011;59284;31.390;34.904;2022-10-16T05:11:23;12.15;;;5.97;;
70744;SDS011;59284;31.390;34.904;2022-10-16T05:13:51;12.13;;;5.43;;
70744;SDS011;59284;31.390;34.904;2022-10-16T05:16:16;13.57;;;5.15;;
70744;SDS011;59284;31.390;34.904;2022-10-16T05:18:42;12.00;;;5.32;;
70744;SDS011;59284;31.390;34.904;2022-10-16T05:21:10;11.18;;;5.80;;
70744;SDS011;59284;31.390;34.904;2022-10-16T05:23:36;11.33;;;5.43;;
70744;SDS011;59284;31.390;34.904;2022-10-16T05:26:14;11.80;;;5.45;;
70744;SDS011;59284;31.390;34.904;2022-10-16T05:28:44;12.25;;;5.28;;
70744;SDS011;59284;31.390;34.904;2022-10-16T05:31:10;12.18;;;5.53;;
70744;SDS011;59284;31.390;34.904;2022-10-16T05:33:40;16.90;;;6.03;;
70744;SDS011;59284;31.390;34.904;2022-10-16T05:36:06;18.45;;;5.65;;
70744;SDS011;59284;31.390;34.904;2022-10-16T05:38:38;14.20;;;4.88;;
70744;SDS011;59284;31.390;34.904;2022-10-16T05:41:04;9.18;;;4.78;;
70744;SDS011;59284;31.390;34.904;2022-10-16T05:43:30;10.35;;;5.22;;
70744;SDS011;59284;31.390;34.904;2022-10-16T05:46:01;13.60;;;5.97;;
70744;SDS011;59284;31.390;34.904;2022-10-16T05:48:29;12.32;;;5.57;;
70744;SDS011;59284;31.390;34.904;2022-10-16T05:53:25;15.75;;;5.13;;
70744;SDS011;59284;31.390;34.904;2022-10-16T05:55:52;9.68;;;4.97;;
70744;SDS011;59284;31.390;34.904;2022-10-16T05:58:19;11.87;;;4.07;;
70744;SDS011;59284;31.390;34.904;2022-10-16T06:00:44;6.78;;;3.63;;
70744;SDS011;59284;31.390;34.904;2022-10-16T06:03:17;10.57;;;3.63;;
70744;SDS011;59284;31.390;34.904;2022-10-16T06:05:43;12.77;;;3.83;;
70744;SDS011;59284;31.390;34.904;2022-10-16T06:08:08;4.57;;;3.05;;
70744;SDS011;59284;31.390;34.904;2022-10-16T06:10:34;8.03;;;3.70;;
70744;SDS011;59284;31.390;34.904;2022-10-16T06:13:03;9.13;;;3.72;;
70744;SDS011;59284;31.390;34.904;2022-10-16T06:15:29;10.57;;;4.20;;
70744;SDS011;59284;31.390;34.904;2022-10-16T06:17:55;7.03;;;3.22;;
70744;SDS011;59284;31.390;34.904;2022-10-16T06:20:20;5.77;;;3.07;;
70744;SDS011;59284;31.390;34.904;2022-10-16T06:22:46;6.80;;;3.63;;
70744;SDS011;59284;31.390;34.904;2022-10-16T06:25:12;8.65;;;3.40;;
70744;SDS011;59284;31.390;34.904;2022-10-16T06:27:40;8.37;;;4.00;;
70744;SDS011;59284;31.390;34.904;2022-10-16T06:30:06;5.38;;;2.90;;
70744;SDS011;59284;31.390;34.904;2022-10-16T06:32:33;7.38;;;3.90;;
70744;SDS011;59284;31.390;34.904;2022-10-16T06:34:58;10.23;;;3.87;;
70744;SDS011;59284;31.390;34.904;2022-10-16T06:37:24;8.43;;;3.20;;
70744;SDS011;59284;31.390;34.904;2022-10-16T06:39:50;9.10;;;4.00;;
70744;SDS011;59284;31.390;34.904;2022-10-16T06:42:19;10.97;;;4.00;;
70744;SDS011;59284;31.390;34.904;2022-10-16T06:44:45;7.88;;;3.38;;
70744;SDS011;59284;31.390;34.904;2022-10-16T06:47:10;8.13;;;3.83;;
70744;SDS011;59284;31.390;34.904;2022-10-16T06:49:36;11.32;;;4.07;;
70744;SDS011;59284;31.390;34.904;2022-10-16T06:52:02;7.55;;;3.67;;
70744;SDS011;59284;31.390;34.904;2022-10-16T06:54:28;4.97;;;2.23;;
70744;SDS011;59284;31.390;34.904;2022-10-16T06:56:54;7.45;;;3.50;;
70744;SDS011;59284;31.390;34.904;2022-10-16T06:59:20;9.80;;;4.50;;
70744;SDS011;59284;31.390;34.904;2022-10-16T07:01:46;7.07;;;3.80;;
70744;SDS011;59284;31.390;34.904;2022-10-16T07:04:11;7.30;;;3.47;;
70744;SDS011;59284;31.390;34.904;2022-10-16T07:06:38;11.57;;;4.10;;
70744;SDS011;59284;31.390;34.904;2022-10-16T07:09:05;10.67;;;3.70;;
70744;SDS011;59284;31.390;34.904;2022-10-16T07:11:34;5.60;;;2.03;;
70744;SDS011;59284;31.390;34.904;2022-10-16T07:14:00;7.13;;;3.80;;
70744;SDS011;59284;31.390;34.904;2022-10-16T07:16:26;10.90;;;3.08;;
70744;SDS011;59284;31.390;34.904;2022-10-16T07:18:54;7.17;;;3.50;;
70744;SDS011;59284;31.390;34.904;2022-10-16T07:21:24;10.55;;;4.03;;
70744;SDS011;59284;31.390;34.904;2022-10-16T07:23:53;13.43;;;4.07;;
70744;SDS011;59284;31.390;34.904;2022-10-16T07:26:20;10.25;;;3.90;;
70744;SDS011;59284;31.390;34.904;2022-10-16T07:28:46;14.40;;;4.03;;
70744;SDS011;59284;31.390;34.904;2022-10-16T07:31:15;6.30;;;3.87;;
70744;SDS011;59284;31.390;34.904;2022-10-16T07:33:42;6.75;;;3.28;;
70744;SDS011;59284;31.390;34.904;2022-10-16T07:36:09;11.10;;;3.92;;
70744;SDS011;59284;31.390;34.904;2022-10-16T07:38:36;12.23;;;3.90;;
70744;SDS011;59284;31.390;34.904;2022-10-16T07:41:04;6.93;;;3.70;;
70744;SDS011;59284;31.390;34.904;2022-10-16T07:43:32;7.80;;;3.70;;
70744;SDS011;59284;31.390;34.904;2022-10-16T07:45:58;12.13;;;4.00;;
70744;SDS011;59284;31.390;34.904;2022-10-16T07:48:25;7.93;;;3.20;;
70744;SDS011;59284;31.390;34.904;2022-10-16T07:50:56;6.55;;;2.58;;
70744;SDS011;59284;31.390;34.904;2022-10-16T07:53:23;8.60;;;3.20;;
70744;SDS011;59284;31.390;34.904;2022-10-16T07:55:48;7.80;;;3.07;;
70744;SDS011;59284;31.390;34.904;2022-10-16T07:58:14;7.40;;;2.70;;
70744;SDS011;59284;31.390;34.904;2022-10-16T08:00:40;6.80;;;3.05;;
70744;SDS011;59284;31.390;34.904;2022-10-16T08:03:07;5.57;;;3.00;;
70744;SDS011;59284;31.390;34.904;2022-10-16T08:05:33;8.40;;;4.13;;
70744;SDS011;59284;31.390;34.904;2022-10-16T08:07:59;8.73;;;3.65;;
70744;SDS011;59284;31.390;34.904;2022-10-16T08:10:28;8.35;;;3.28;;
70744;SDS011;59284;31.390;34.904;2022-10-16T08:12:54;9.70;;;3.08;;
70744;SDS011;59284;31.390;34.904;2022-10-16T08:15:20;13.67;;;3.87;;
70744;SDS011;59284;31.390;34.904;2022-10-16T08:17:59;6.22;;;2.53;;
70744;SDS011;59284;31.390;34.904;2022-10-16T08:20:28;5.68;;;2.55;;
70744;SDS011;59284;31.390;34.904;2022-10-16T08:22:55;9.52;;;3.78;;
70744;SDS011;59284;31.390;34.904;2022-10-16T08:25:21;10.83;;;3.40;;
70744;SDS011;59284;31.390;34.904;2022-10-16T08:27:48;9.75;;;3.70;;
70744;SDS011;59284;31.390;34.904;2022-10-16T08:30:15;13.73;;;3.65;;
70744;SDS011;59284;31.390;34.904;2022-10-16T08:32:43;5.30;;;2.05;;
70744;SDS011;59284;31.390;34.904;2022-10-16T08:35:11;6.45;;;2.40;;
70744;SDS011;59284;31.390;34.904;2022-10-16T08:37:40;4.20;;;2.40;;
70744;SDS011;59284;31.390;34.904;2022-10-16T08:40:11;10.20;;;2.67;;
70744;SDS011;59284;31.390;34.904;2022-10-16T08:51:15;10.10;;;3.13;;
70744;SDS011;59284;31.390;34.904;2022-10-16T08:53:57;6.07;;;3.25;;
70744;SDS011;59284;31.390;34.904;2022-10-16T08:56:26;9.10;;;3.03;;
70744;SDS011;59284;31.390;34.904;2022-10-16T08:58:52;7.47;;;3.55;;
70744;SDS011;59284;31.390;34.904;2022-10-16T09:01:22;11.57;;;3.90;;
70744;SDS011;59284;31.390;34.904;2022-10-16T09:20:39;7.28;;;2.95;;
70744;SDS011;59284;31.390;34.904;2022-10-16T09:23:10;7.75;;;3.20;;
70744;SDS011;59284;31.390;34.904;2022-10-16T09:25:48;8.57;;;3.30;;
70744;SDS011;59284;31.390;34.904;2022-10-16T09:28:16;8.95;;;3.30;;
70744;SDS011;59284;31.390;34.904;2022-10-16T09:30:43;8.40;;;3.00;;
70744;SDS011;59284;31.390;34.904;2022-10-16T09:33:10;7.72;;;3.00;;
70744;SDS011;59284;31.390;34.904;2022-10-16T09:38:05;7.93;;;3.25;;
70744;SDS011;59284;31.390;34.904;2022-10-16T09:40:35;12.32;;;3.13;;
70744;SDS011;59284;31.390;34.904;2022-10-16T09:43:12;9.20;;;3.00;;
70744;SDS011;59284;31.390;34.904;2022-10-16T09:45:59;8.35;;;3.03;;
70744;SDS011;59284;31.390;34.904;2022-10-16T09:48:48;10.48;;;2.85;;
70744;SDS011;59284;31.390;34.904;2022-10-16T09:51:26;8.40;;;2.80;;
70744;SDS011;59284;31.390;34.904;2022-10-16T09:53:59;11.57;;;3.72;;
70744;SDS011;59284;31.390;34.904;2022-10-16T09:56:27;14.83;;;3.50;;
70744;SDS011;59284;31.390;34.904;2022-10-16T09:58:56;8.70;;;3.33;;
70744;SDS011;59284;31.390;34.904;2022-10-16T10:01:28;9.50;;;2.90;;
70744;SDS011;59284;31.390;34.904;2022-10-16T10:04:00;8.45;;;2.42;;
70744;SDS011;59284;31.390;34.904;2022-10-16T10:07:01;10.70;;;3.20;;
70744;SDS011;59284;31.390;34.904;2022-10-16T10:12:05;7.65;;;2.67;;
70744;SDS011;59284;31.390;34.904;2022-10-16T10:14:52;7.85;;;3.00;;
70744;SDS011;59284;31.390;34.904;2022-10-16T10:17:24;10.10;;;3.05;;
70744;SDS011;59284;31.390;34.904;2022-10-16T10:19:53;9.48;;;2.42;;
70744;SDS011;59284;31.390;34.904;2022-10-16T10:22:39;9.30;;;2.20;;
70744;SDS011;59284;31.390;34.904;2022-10-16T10:33:23;10.18;;;2.95;;
70744;SDS011;59284;31.390;34.904;2022-10-16T11:08:30;10.57;;;2.38;;
70744;SDS011;59284;31.390;34.904;2022-10-16T11:11:35;6.93;;;2.92;;
70744;SDS011;59284;31.390;34.904;2022-10-16T11:14:42;6.78;;;2.42;;
70744;SDS011;59284;31.390;34.904;2022-10-16T11:17:26;7.85;;;3.03;;
70744;SDS011;59284;31.390;34.904;2022-10-16T11:20:13;6.83;;;2.33;;
70744;SDS011;59284;31.390;34.904;2022-10-16T11:25:31;9.57;;;3.55;;
70744;SDS011;59284;31.390;34.904;2022-10-16T11:28:11;11.32;;;2.88;;
70744;SDS011;59284;31.390;34.904;2022-10-16T11:31:26;9.70;;;3.13;;
70744;SDS011;59284;31.390;34.904;2022-10-16T11:33:39;9.03;;;3.10;;
70744;SDS011;59284;31.390;34.904;2022-10-16T11:49:45;14.93;;;2.92;;
70744;SDS011;59284;31.390;34.904;2022-10-16T11:52:35;9.90;;;2.58;;
70744;SDS011;59284;31.390;34.904;2022-10-16T11:55:17;14.18;;;4.05;;
70744;SDS011;59284;31.390;34.904;2022-10-16T11:57:53;17.48;;;4.70;;
70744;SDS011;59284;31.390;34.904;2022-10-16T12:00:38;12.37;;;4.40;;
70744;SDS011;59284;31.390;34.904;2022-10-16T12:09:00;18.75;;;4.38;;
70744;SDS011;59284;31.390;34.904;2022-10-16T12:11:37;17.60;;;4.75;;
70744;SDS011;59284;31.390;34.904;2022-10-16T12:14:32;13.00;;;4.87;;
70744;SDS011;59284;31.390;34.904;2022-10-16T12:16:53;16.35;;;4.22;;
70744;SDS011;59284;31.390;34.904;2022-10-16T12:19:21;16.58;;;5.10;;
70744;SDS011;59284;31.390;34.904;2022-10-16T12:21:52;17.35;;;5.00;;
70744;SDS011;59284;31.390;34.904;2022-10-16T12:24:35;17.08;;;4.82;;
70744;SDS011;59284;31.390;34.904;2022-10-16T12:27:04;21.50;;;4.80;;
70744;SDS011;59284;31.390;34.904;2022-10-16T12:29:37;11.77;;;4.47;;
70744;SDS011;59284;31.390;34.904;2022-10-16T12:32:19;29.67;;;6.72;;
70744;SDS011;59284;31.390;34.904;2022-10-16T12:34:50;19.58;;;5.25;;
70744;SDS011;59284;31.390;34.904;2022-10-16T12:37:24;17.50;;;5.63;;
70744;SDS011;59284;31.390;34.904;2022-10-16T12:39:53;14.73;;;5.23;;
70744;SDS011;59284;31.390;34.904;2022-10-16T12:44:47;16.83;;;5.45;;
70744;SDS011;59284;31.390;34.904;2022-10-16T12:49:57;25.60;;;5.78;;
70744;SDS011;59284;31.390;34.904;2022-10-16T12:52:42;22.60;;;6.68;;
70744;SDS011;59284;31.390;34.904;2022-10-16T12:55:15;16.45;;;5.72;;
70744;SDS011;59284;31.390;34.904;2022-10-16T13:00:25;22.20;;;6.53;;
70744;SDS011;59284;31.390;34.904;2022-10-16T13:26:56;28.48;;;7.05;;
70744;SDS011;59284;31.390;34.904;2022-10-16T13:29:30;17.90;;;5.63;;
70744;SDS011;59284;31.390;34.904;2022-10-16T13:31:57;17.35;;;6.00;;
70744;SDS011;59284;31.390;34.904;2022-10-16T13:34:27;20.27;;;6.03;;
70744;SDS011;59284;31.390;34.904;2022-10-16T13:36:53;19.27;;;5.90;;
70744;SDS011;59284;31.390;34.904;2022-10-16T13:39:26;23.25;;;6.10;;
70744;SDS011;59284;31.390;34.904;2022-10-16T13:44:36;25.60;;;5.93;;
70744;SDS011;59284;31.390;34.904;2022-10-16T13:47:19;22.60;;;6.38;;
70744;SDS011;59284;31.390;34.904;2022-10-16T13:49:47;23.00;;;6.07;;
70744;SDS011;59284;31.390;34.904;2022-10-16T13:52:27;22.10;;;6.53;;
70744;SDS011;59284;31.390;34.904;2022-10-16T13:54:53;27.52;;;6.03;;
70744;SDS011;59284;31.390;34.904;2022-10-16T13:57:21;19.17;;;5.43;;
70744;SDS011;59284;31.390;34.904;2022-10-16T13:59:48;21.75;;;6.30;;
70744;SDS011;59284;31.390;34.904;2022-10-16T14:02:22;19.13;;;5.78;;
70744;SDS011;59284;31.390;34.904;2022-10-16T14:04:52;21.60;;;6.25;;
70744;SDS011;59284;31.390;34.904;2022-10-16T14:09:56;19.25;;;6.10;;
70744;SDS011;59284;31.390;34.904;2022-10-16T14:12:31;25.88;;;6.03;;
70744;SDS011;59284;31.390;34.904;2022-10-16T14:14:59;17.93;;;6.27;;
70744;SDS011;59284;31.390;34.904;2022-10-16T14:17:46;20.57;;;6.37;;
70744;SDS011;59284;31.390;34.904;2022-10-16T14:20:20;22.05;;;6.85;;
70744;SDS011;59284;31.390;34.904;2022-10-16T14:23:36;25.17;;;6.53;;
70744;SDS011;59284;31.390;34.904;2022-10-16T14:25:47;19.00;;;6.65;;
70744;SDS011;59284;31.390;34.904;2022-10-16T14:28:24;16.48;;;5.88;;
70744;SDS011;59284;31.390;34.904;2022-10-16T14:31:17;26.53;;;6.50;;
70744;SDS011;59284;31.390;34.904;2022-10-16T14:33:52;17.52;;;5.85;;
70744;SDS011;59284;31.390;34.904;2022-10-16T14:36:18;18.45;;;6.88;;
70744;SDS011;59284;31.390;34.904;2022-10-16T14:38:53;17.10;;;6.33;;
70744;SDS011;59284;31.390;34.904;2022-10-16T14:41:28;15.27;;;5.80;;
70744;SDS011;59284;31.390;34.904;2022-10-16T14:43:57;26.05;;;6.32;;
70744;SDS011;59284;31.390;34.904;2022-10-16T14:46:36;24.92;;;5.90;;
70744;SDS011;59284;31.390;34.904;2022-10-16T14:49:15;13.10;;;5.78;;
70744;SDS011;59284;31.390;34.904;2022-10-16T14:51:45;16.43;;;6.00;;
70744;SDS011;59284;31.390;34.904;2022-10-16T14:54:15;24.60;;;6.35;;
70744;SDS011;59284;31.390;34.904;2022-10-16T14:59:39;15.65;;;5.97;;
70744;SDS011;59284;31.390;34.904;2022-10-16T15:05:24;14.77;;;5.47;;
70744;SDS011;59284;31.390;34.904;2022-10-16T15:07:53;24.27;;;5.88;;
70744;SDS011;59284;31.390;34.904;2022-10-16T15:10:20;22.95;;;5.72;;
70744;SDS011;59284;31.390;34.904;2022-10-16T15:12:47;21.13;;;6.05;;
70744;SDS011;59284;31.390;34.904;2022-10-16T15:17:48;15.95;;;6.60;;
70744;SDS011;59284;31.390;34.904;2022-10-16T15:20:20;15.70;;;6.03;;
70744;SDS011;59284;31.390;34.904;2022-10-16T15:22:46;24.42;;;5.97;;
70744;SDS011;59284;31.390;34.904;2022-10-16T15:27:41;18.53;;;6.20;;
70744;SDS011;59284;31.390;34.904;2022-10-16T15:30:06;18.65;;;6.07;;
70744;SDS011;59284;31.390;34.904;2022-10-16T15:32:32;26.57;;;6.40;;
70744;SDS011;59284;31.390;34.904;2022-10-16T15:34:58;20.20;;;6.03;;
70744;SDS011;59284;31.390;34.904;2022-10-16T15:37:23;17.53;;;5.93;;
70744;SDS011;59284;31.390;34.904;2022-10-16T15:39:50;16.50;;;5.72;;
70744;SDS011;59284;31.390;34.904;2022-10-16T15:42:15;16.95;;;5.70;;
70744;SDS011;59284;31.390;34.904;2022-10-16T15:44:41;15.27;;;5.83;;
70744;SDS011;59284;31.390;34.904;2022-10-16T15:47:07;14.63;;;6.18;;
70744;SDS011;59284;31.390;34.904;2022-10-16T15:49:35;20.57;;;7.53;;
70744;SDS011;59284;31.390;34.904;2022-10-16T15:52:00;27.75;;;6.60;;
70744;SDS011;59284;31.390;34.904;2022-10-16T15:54:26;14.48;;;5.60;;
70744;SDS011;59284;31.390;34.904;2022-10-16T15:56:52;28.87;;;6.33;;
70744;SDS011;59284;31.390;34.904;2022-10-16T15:59:17;14.77;;;5.77;;
70744;SDS011;59284;31.390;34.904;2022-10-16T16:01:43;13.73;;;5.57;;
70744;SDS011;59284;31.390;34.904;2022-10-16T16:04:09;18.33;;;6.50;;
70744;SDS011;59284;31.390;34.904;2022-10-16T16:06:35;13.70;;;5.70;;
70744;SDS011;59284;31.390;34.904;2022-10-16T16:09:02;19.92;;;5.97;;
70744;SDS011;59284;31.390;34.904;2022-10-16T16:11:28;14.93;;;5.93;;
70744;SDS011;59284;31.390;34.904;2022-10-16T16:13:54;15.52;;;6.57;;
70744;SDS011;59284;31.390;34.904;2022-10-16T16:16:20;14.40;;;5.50;;
70744;SDS011;59284;31.390;34.904;2022-10-16T16:18:46;18.83;;;5.77;;
70744;SDS011;59284;31.390;34.904;2022-10-16T16:21:13;15.15;;;5.70;;
70744;SDS011;59284;31.390;34.904;2022-10-16T16:23:39;28.13;;;9.67;;
70744;SDS011;59284;31.390;34.904;2022-10-16T16:26:07;16.35;;;6.47;;
70744;SDS011;59284;31.390;34.904;2022-10-16T16:28:41;14.30;;;6.40;;
70744;SDS011;59284;31.390;34.904;2022-10-16T16:31:11;18.63;;;5.50;;
70744;SDS011;59284;31.390;34.904;2022-10-16T16:33:37;15.10;;;5.30;;
70744;SDS011;59284;31.390;34.904;2022-10-16T16:36:03;12.20;;;5.78;;
70744;SDS011;59284;31.390;34.904;2022-10-16T16:38:31;16.92;;;6.80;;
70744;SDS011;59284;31.390;34.904;2022-10-16T16:40:57;17.73;;;6.23;;
70744;SDS011;59284;31.390;34.904;2022-10-16T16:43:26;15.85;;;6.10;;
70744;SDS011;59284;31.390;34.904;2022-10-16T16:45:53;14.55;;;5.90;;
70744;SDS011;59284;31.390;34.904;2022-10-16T16:48:19;13.50;;;5.55;;
70744;SDS011;59284;31.390;34.904;2022-10-16T16:50:45;13.63;;;5.50;;
70744;SDS011;59284;31.390;34.904;2022-10-16T16:53:11;12.00;;;5.28;;
70744;SDS011;59284;31.390;34.904;2022-10-16T16:55:36;18.77;;;5.67;;
70744;SDS011;59284;31.390;34.904;2022-10-16T16:58:02;13.73;;;6.10;;
70744;SDS011;59284;31.390;34.904;2022-10-16T17:00:28;15.10;;;5.77;;
70744;SDS011;59284;31.390;34.904;2022-10-16T17:02:56;26.02;;;6.20;;
70744;SDS011;59284;31.390;34.904;2022-10-16T17:05:22;14.57;;;5.90;;
70744;SDS011;59284;31.390;34.904;2022-10-16T17:07:48;13.07;;;5.55;;
70744;SDS011;59284;31.390;34.904;2022-10-16T17:10:13;15.40;;;6.43;;
70744;SDS011;59284;31.390;34.904;2022-10-16T17:12:39;16.20;;;6.03;;
70744;SDS011;59284;31.390;34.904;2022-10-16T17:15:05;16.30;;;5.43;;
70744;SDS011;59284;31.390;34.904;2022-10-16T17:17:31;18.08;;;5.85;;
70744;SDS011;59284;31.390;34.904;2022-10-16T17:19:56;15.80;;;5.97;;